Time;durP1;ratioP1;P1;durP2;ratioP2;P2;SDS_P1;SDS_P2;PMS_P1;PMS_P2;Temp;Humidity;BMP_temperature;BMP_pressure;BME280_temperature;BME280_humidity;BME280_pressure;Samples;Min_cycle;Max_cycle;Signal;HPM_P1;HPM_P2
2021/05/10 00:00:55;;;;;;;2.10;1.30;;;21.90;47.30;;;;;;5003406;28;20436;-68
2021/05/10 00:03:22;;;;;;;1.20;1.20;;;21.90;47.20;;;;;;4994248;28;20513;-70
2021/05/10 00:05:48;;;;;;;1.17;0.97;;;21.90;47.20;;;;;;4995301;28;20945;-73
2021/05/10 00:08:14;;;;;;;1.30;1.20;;;21.90;47.20;;;;;;4982366;28;20432;-70
2021/05/10 00:10:41;;;;;;;1.40;1.30;;;22.00;47.20;;;;;;4976537;28;20427;-70
2021/05/10 00:13:09;;;;;;;1.25;1.15;;;22.00;47.30;;;;;;4994107;28;20422;-70
2021/05/10 00:15:35;;;;;;;0.90;0.90;;;21.90;47.10;;;;;;5003655;28;20478;-71
2021/05/10 00:18:03;;;;;;;1.00;1.00;;;22.00;47.10;;;;;;5004160;28;20489;-69
2021/05/10 00:20:30;;;;;;;1.30;1.10;;;21.90;47.00;;;;;;4998981;28;20430;-69
2021/05/10 00:22:56;;;;;;;1.30;1.20;;;21.90;47.00;;;;;;5018535;28;20407;-71
2021/05/10 00:25:22;;;;;;;1.27;1.17;;;22.00;47.10;;;;;;5007104;28;20841;-69
2021/05/10 00:27:48;;;;;;;1.40;1.40;;;21.90;47.10;;;;;;5006429;28;20899;-70
2021/05/10 00:30:17;;;;;;;1.10;1.10;;;21.90;47.10;;;;;;5004044;28;20443;-71
2021/05/10 00:32:43;;;;;;;1.30;1.20;;;21.90;47.10;;;;;;5003675;28;20433;-70
2021/05/10 00:35:10;;;;;;;1.20;1.20;;;21.90;47.00;;;;;;5001963;28;20454;-68
2021/05/10 00:37:36;;;;;;;2.10;1.00;;;21.90;47.10;;;;;;4997264;28;20476;-69
2021/05/10 00:40:03;;;;;;;1.00;1.00;;;21.90;47.00;;;;;;4996828;28;20481;-70
2021/05/10 00:42:29;;;;;;;0.90;0.90;;;21.90;47.00;;;;;;4977423;28;20953;-72
2021/05/10 00:44:55;;;;;;;1.20;1.10;;;21.90;47.00;;;;;;4969023;28;20833;-73
2021/05/10 00:47:22;;;;;;;1.42;1.13;;;21.90;47.00;;;;;;4964908;28;20943;-73
2021/05/10 00:49:48;;;;;;;1.20;1.10;;;21.90;47.00;;;;;;4979064;28;20409;-68
2021/05/10 00:52:14;;;;;;;1.27;1.17;;;21.90;47.00;;;;;;4991931;28;20415;-70
2021/05/10 00:54:40;;;;;;;1.23;1.10;;;21.90;47.00;;;;;;4986667;28;20431;-69
2021/05/10 00:57:07;;;;;;;2.85;1.50;;;21.90;46.90;;;;;;5006752;28;20403;-68
2021/05/10 00:59:33;;;;;;;1.30;1.20;;;21.90;46.80;;;;;;4999980;28;20423;-68
2021/05/10 01:01:59;;;;;;;1.10;1.10;;;22.00;46.90;;;;;;4994449;28;20939;-69
2021/05/10 01:04:26;;;;;;;1.30;1.30;;;22.00;46.90;;;;;;5000792;28;20417;-69
2021/05/10 01:06:52;;;;;;;1.30;1.20;;;22.00;46.80;;;;;;4985745;28;20411;-69
2021/05/10 01:09:18;;;;;;;1.10;1.10;;;22.00;46.80;;;;;;5017032;28;20421;-70
2021/05/10 01:11:45;;;;;;;1.90;1.20;;;22.00;46.70;;;;;;4995449;28;20399;-68
2021/05/10 01:14:11;;;;;;;1.90;1.17;;;22.00;47.70;;;;;;4988177;28;20452;-70
2021/05/10 01:16:37;;;;;;;1.20;1.20;;;22.00;46.80;;;;;;4993465;28;21066;-68
2021/05/10 01:19:03;;;;;;;1.90;1.13;;;22.00;46.90;;;;;;5004487;28;20428;-68
2021/05/10 01:21:30;;;;;;;1.00;1.00;;;22.00;46.90;;;;;;5010492;28;20425;-70
2021/05/10 01:23:58;;;;;;;1.10;1.10;;;22.00;46.80;;;;;;5008298;28;20409;-70
2021/05/10 01:26:24;;;;;;;1.20;1.20;;;22.00;46.90;;;;;;5004885;28;20417;-67
2021/05/10 01:28:50;;;;;;;0.90;0.90;;;21.90;46.80;;;;;;5003593;28;20424;-69
2021/05/10 01:31:16;;;;;;;3.70;1.10;;;22.00;46.90;;;;;;5000578;28;20425;-69
2021/05/10 01:33:42;;;;;;;1.47;1.20;;;22.00;46.90;;;;;;5009394;28;21010;-66
2021/05/10 01:36:09;;;;;;;1.40;1.30;;;21.90;46.80;;;;;;4997090;28;20478;-67
2021/05/10 01:38:35;;;;;;;1.02;1.02;;;21.90;46.90;;;;;;4993477;28;20525;-68
2021/05/10 01:41:02;;;;;;;1.00;1.00;;;21.90;46.90;;;;;;4999452;28;20428;-70
2021/05/10 01:43:28;;;;;;;1.23;1.10;;;21.90;46.90;;;;;;4967401;28;20410;-69
2021/05/10 01:45:54;;;;;;;1.30;1.30;;;21.90;46.90;;;;;;4965763;28;20447;-67
2021/05/10 01:48:20;;;;;;;1.15;1.15;;;21.90;46.80;;;;;;5001245;28;20442;-72
2021/05/10 01:50:47;;;;;;;1.10;1.00;;;21.90;46.80;;;;;;5007560;28;20448;-69
2021/05/10 01:53:13;;;;;;;1.30;1.20;;;21.90;46.80;;;;;;4994636;28;21004;-69
2021/05/10 01:55:39;;;;;;;1.10;1.00;;;22.00;46.90;;;;;;4978683;28;20428;-68
2021/05/10 01:58:07;;;;;;;3.15;1.70;;;22.00;46.80;;;;;;4998161;28;20427;-68
2021/05/10 02:00:34;;;;;;;1.13;1.13;;;22.00;46.80;;;;;;4998755;28;20421;-68
2021/05/10 02:03:00;;;;;;;1.50;1.00;;;21.90;46.60;;;;;;5015953;28;20428;-70
2021/05/10 02:05:26;;;;;;;1.33;1.00;;;21.90;46.70;;;;;;5003065;28;20459;-69
2021/05/10 02:07:53;;;;;;;1.35;1.30;;;21.90;46.60;;;;;;4996051;28;20416;-68
2021/05/10 02:10:22;;;;;;;4.30;1.30;;;21.90;46.70;;;;;;5012417;28;20771;-70
2021/05/10 02:12:55;;;;;;;1.40;1.27;;;21.90;46.70;;;;;;4997065;28;20426;-68
2021/05/10 02:15:23;;;;;;;1.80;1.10;;;21.90;46.60;;;;;;4983763;28;20428;-70
2021/05/10 02:17:49;;;;;;;1.20;1.20;;;21.90;46.60;;;;;;4992814;28;20414;-68
2021/05/10 02:20:15;;;;;;;1.17;1.17;;;21.90;46.60;;;;;;4994618;28;20425;-67
2021/05/10 02:22:50;;;;;;;1.10;1.00;;;21.90;46.60;;;;;;5000214;28;20432;-69
2021/05/10 02:25:18;;;;;;;1.70;1.60;;;21.90;46.60;;;;;;4982971;28;20409;-69
2021/05/10 02:27:44;;;;;;;0.88;0.88;;;22.00;46.60;;;;;;5006051;28;20474;-68
2021/05/10 02:30:12;;;;;;;1.08;1.00;;;21.90;46.50;;;;;;5003723;28;20432;-70
2021/05/10 02:32:39;;;;;;;1.67;1.38;;;22.00;46.50;;;;;;5011378;28;20582;-69
2021/05/10 02:35:05;;;;;;;1.20;1.20;;;22.00;46.50;;;;;;5000909;28;20432;-69
2021/05/10 02:37:31;;;;;;;1.10;1.00;;;22.00;46.50;;;;;;5000149;28;20923;-70
2021/05/10 02:39:57;;;;;;;1.33;1.23;;;22.00;46.50;;;;;;5000807;28;20427;-70
2021/05/10 02:42:23;;;;;;;0.98;0.98;;;22.00;46.50;;;;;;5007657;28;20425;-70
2021/05/10 02:44:49;;;;;;;1.20;1.10;;;22.00;46.60;;;;;;5008326;28;20412;-70
2021/05/10 02:47:16;;;;;;;1.10;1.10;;;22.00;46.70;;;;;;5009810;28;20482;-68
2021/05/10 02:49:43;;;;;;;1.30;1.10;;;21.90;46.60;;;;;;5001243;28;20423;-68
2021/05/10 02:52:09;;;;;;;1.10;1.00;;;21.90;46.60;;;;;;4996378;28;20434;-69
2021/05/10 02:54:35;;;;;;;1.02;1.00;;;22.00;46.60;;;;;;5004681;28;20470;-69
2021/05/10 02:57:01;;;;;;;1.20;1.20;;;22.00;46.60;;;;;;5003959;28;20417;-69
2021/05/10 02:59:27;;;;;;;1.30;1.30;;;22.00;46.50;;;;;;5003994;28;20420;-69
2021/05/10 03:01:53;;;;;;;1.25;1.15;;;22.00;46.40;;;;;;5007746;28;20784;-69
2021/05/10 03:04:20;;;;;;;1.30;1.20;;;22.00;46.40;;;;;;4996935;28;20848;-70
2021/05/10 03:06:47;;;;;;;6.25;1.38;;;22.00;46.40;;;;;;4993134;28;20424;-69
2021/05/10 03:09:13;;;;;;;1.00;1.00;;;22.00;46.30;;;;;;4966971;28;20460;-66
2021/05/10 03:11:39;;;;;;;1.25;0.98;;;22.00;46.40;;;;;;4991015;28;20425;-68
2021/05/10 03:14:05;;;;;;;1.60;0.93;;;22.00;46.40;;;;;;4993933;28;20425;-69
2021/05/10 03:16:31;;;;;;;2.40;0.95;;;22.00;46.40;;;;;;5014493;28;20424;-69
2021/05/10 03:18:57;;;;;;;1.92;1.20;;;22.00;46.30;;;;;;5000379;28;20450;-67
2021/05/10 03:21:23;;;;;;;3.10;1.00;;;22.10;46.30;;;;;;5001282;28;20426;-68
2021/05/10 03:23:50;;;;;;;1.23;0.97;;;22.10;46.30;;;;;;5004451;28;20441;-66
2021/05/10 03:26:16;;;;;;;1.20;1.10;;;22.10;46.20;;;;;;5000760;28;20421;-71
2021/05/10 03:28:43;;;;;;;1.20;0.90;;;22.10;46.20;;;;;;5005018;28;20442;-70
2021/05/10 03:31:09;;;;;;;1.45;1.02;;;22.10;46.20;;;;;;5008488;28;20480;-72
2021/05/10 03:33:35;;;;;;;1.30;1.20;;;22.20;46.30;;;;;;5006064;28;20548;-70
2021/05/10 03:36:01;;;;;;;1.60;1.13;;;22.10;46.20;;;;;;4987548;28;20432;-70
2021/05/10 03:38:27;;;;;;;1.13;1.13;;;22.20;46.20;;;;;;4969233;28;20430;-68
2021/05/10 03:40:54;;;;;;;0.90;0.90;;;22.10;46.10;;;;;;4980728;28;20439;-68
2021/05/10 03:43:20;;;;;;;1.20;1.20;;;22.10;46.30;;;;;;4961537;28;20414;-69
2021/05/10 03:45:46;;;;;;;1.60;1.20;;;22.10;46.50;;;;;;5000670;28;20484;-69
2021/05/10 03:48:12;;;;;;;1.00;1.00;;;22.10;46.50;;;;;;4973796;28;20422;-70
2021/05/10 03:50:39;;;;;;;3.50;1.00;;;22.10;46.50;;;;;;4991067;28;20477;-68
2021/05/10 03:53:05;;;;;;;1.30;1.13;;;22.10;46.70;;;;;;4991731;28;21494;-69
2021/05/10 03:55:31;;;;;;;2.00;0.95;;;22.10;46.70;;;;;;4996300;28;20434;-70
2021/05/10 03:57:58;;;;;;;2.10;1.10;;;22.10;46.80;;;;;;5007668;28;21423;-69
2021/05/10 04:00:24;;;;;;;1.10;1.10;;;22.00;46.80;;;;;;4996945;28;20423;-69
2021/05/10 04:02:50;;;;;;;1.10;1.00;;;22.00;46.90;;;;;;5006558;28;20423;-72
2021/05/10 04:05:42;;;;;;;1.25;1.25;;;22.00;46.90;;;;;;4997025;28;20452;-71
2021/05/10 04:08:15;;;;;;;1.20;1.10;;;22.00;47.70;;;;;;4992863;28;20514;-68
2021/05/10 04:10:56;;;;;;;1.00;1.00;;;22.00;46.80;;;;;;4995867;28;20554;-68
2021/05/10 04:13:36;;;;;;;1.73;1.10;;;22.10;46.90;;;;;;4978455;28;20449;-69
2021/05/10 04:16:03;;;;;;;1.40;1.00;;;22.10;46.80;;;;;;4988651;28;20411;-70
2021/05/10 04:18:29;;;;;;;2.50;1.45;;;22.10;46.60;;;;;;4995110;28;20420;-70
2021/05/10 04:20:55;;;;;;;1.40;1.10;;;22.10;46.70;;;;;;4977156;28;20838;-68
2021/05/10 04:23:21;;;;;;;1.30;1.00;;;22.10;46.80;;;;;;4977746;28;20425;-69
2021/05/10 04:25:48;;;;;;;1.80;1.30;;;22.10;47.70;;;;;;5002502;28;20897;-69
2021/05/10 04:28:14;;;;;;;2.10;1.20;;;22.00;46.90;;;;;;5003930;28;20417;-68
2021/05/10 04:30:41;;;;;;;1.10;1.10;;;22.00;47.00;;;;;;5003944;28;21067;-70
2021/05/10 04:33:07;;;;;;;2.10;1.50;;;21.90;47.10;;;;;;5007028;28;20477;-68
2021/05/10 04:35:34;;;;;;;1.10;1.00;;;21.90;47.20;;;;;;4997080;28;20446;-68
2021/05/10 04:38:01;;;;;;;1.00;0.90;;;21.90;47.30;;;;;;4992884;28;20880;-70
2021/05/10 04:40:27;;;;;;;0.90;0.90;;;21.90;47.30;;;;;;5000167;28;20423;-67
2021/05/10 04:42:53;;;;;;;1.40;1.20;;;21.90;47.40;;;;;;5010943;28;20407;-68
2021/05/10 04:45:19;;;;;;;1.10;1.10;;;21.90;47.40;;;;;;4987944;28;20424;-67
2021/05/10 04:47:47;;;;;;;1.30;1.20;;;21.80;47.50;;;;;;4988914;28;20419;-70
2021/05/10 04:50:13;;;;;;;1.40;1.10;;;21.80;47.60;;;;;;4981185;28;20409;-69
2021/05/10 04:52:40;;;;;;;1.90;1.10;;;21.80;47.60;;;;;;5008734;28;20410;-68
2021/05/10 04:55:07;;;;;;;1.20;1.20;;;21.80;47.60;;;;;;5001196;28;20495;-68
2021/05/10 04:57:33;;;;;;;1.00;1.00;;;21.80;47.40;;;;;;4982533;28;20425;-69
2021/05/10 04:59:59;;;;;;;0.90;0.90;;;21.90;47.40;;;;;;4986891;28;20430;-70
2021/05/10 05:02:25;;;;;;;1.23;1.15;;;21.90;47.30;;;;;;5009073;28;20415;-70
2021/05/10 05:04:52;;;;;;;1.73;1.23;;;21.90;47.50;;;;;;5005281;28;20425;-70
2021/05/10 05:07:18;;;;;;;2.80;0.93;;;21.90;47.40;;;;;;4983928;28;20425;-69
2021/05/10 05:09:45;;;;;;;1.02;1.02;;;21.90;47.30;;;;;;4992467;28;20409;-70
2021/05/10 05:12:11;;;;;;;1.50;1.27;;;22.00;47.50;;;;;;4998827;28;20512;-70
2021/05/10 05:14:37;;;;;;;1.10;1.10;;;22.00;47.60;;;;;;5014527;28;20429;-68
2021/05/10 05:17:04;;;;;;;1.30;1.30;;;21.90;47.50;;;;;;5005719;28;20891;-70
2021/05/10 05:19:30;;;;;;;1.30;1.20;;;22.00;47.60;;;;;;4998953;28;20993;-69
2021/05/10 05:21:57;;;;;;;1.23;1.15;;;21.90;47.50;;;;;;4994842;28;20421;-69
2021/05/10 05:24:23;;;;;;;1.30;1.20;;;22.00;47.60;;;;;;5009118;28;21543;-68
2021/05/10 05:26:49;;;;;;;1.20;1.10;;;22.00;47.70;;;;;;5004743;28;21047;-70
2021/05/10 05:29:19;;;;;;;1.38;1.33;;;22.00;47.50;;;;;;5005063;28;20780;-68
2021/05/10 05:31:45;;;;;;;1.40;0.90;;;22.00;47.60;;;;;;5001656;28;20418;-69
2021/05/10 05:34:11;;;;;;;1.02;0.90;;;22.00;47.40;;;;;;5006536;28;20426;-69
2021/05/10 05:36:37;;;;;;;1.20;1.10;;;22.00;47.50;;;;;;5000723;28;20829;-69
2021/05/10 05:39:07;;;;;;;1.40;1.00;;;22.00;47.40;;;;;;4980543;28;20796;-70
2021/05/10 05:41:33;;;;;;;1.02;1.02;;;22.00;47.50;;;;;;5002897;28;20924;-69
2021/05/10 05:43:59;;;;;;;4.47;1.17;;;22.00;47.60;;;;;;4992572;28;20973;-67
2021/05/10 05:46:27;;;;;;;1.67;0.93;;;22.00;47.70;;;;;;5005075;28;20419;-69
2021/05/10 05:48:53;;;;;;;1.20;1.20;;;22.00;47.80;;;;;;4986052;28;20419;-69
2021/05/10 05:51:19;;;;;;;3.00;1.58;;;21.90;47.90;;;;;;5014664;28;20901;-69
2021/05/10 05:53:45;;;;;;;0.95;0.95;;;21.90;47.80;;;;;;5005447;28;20903;-69
2021/05/10 05:56:12;;;;;;;1.60;1.05;;;21.90;47.80;;;;;;4992736;28;21068;-70
2021/05/10 05:58:39;;;;;;;1.90;0.93;;;21.90;47.90;;;;;;4991107;28;20441;-71
2021/05/10 06:01:05;;;;;;;1.40;1.10;;;21.90;47.90;;;;;;4993755;28;20437;-69
2021/05/10 06:03:31;;;;;;;1.23;1.13;;;21.90;48.00;;;;;;4994922;28;20423;-71
2021/05/10 06:05:57;;;;;;;1.15;1.10;;;21.90;47.80;;;;;;4987579;28;20419;-68
2021/05/10 06:08:23;;;;;;;1.08;1.05;;;21.90;47.80;;;;;;4983552;28;21392;-69
2021/05/10 06:10:50;;;;;;;1.38;1.20;;;21.90;47.90;;;;;;4995384;28;20418;-72
2021/05/10 06:13:17;;;;;;;1.05;1.00;;;21.90;48.00;;;;;;5007375;28;20417;-69
2021/05/10 06:15:43;;;;;;;1.00;1.00;;;21.90;48.20;;;;;;4990405;28;20523;-69
2021/05/10 06:18:09;;;;;;;1.17;1.08;;;21.90;48.20;;;;;;5008317;28;20785;-69
2021/05/10 06:20:35;;;;;;;1.20;1.10;;;22.00;48.20;;;;;;4990119;28;20441;-71
2021/05/10 06:23:02;;;;;;;1.15;1.05;;;21.90;48.10;;;;;;4987679;28;20424;-67
2021/05/10 06:25:28;;;;;;;1.10;1.10;;;22.00;48.20;;;;;;4991200;28;20414;-68
2021/05/10 06:27:54;;;;;;;2.00;1.10;;;21.90;48.20;;;;;;4989177;28;20405;-70
2021/05/10 06:30:21;;;;;;;2.30;1.20;;;21.90;48.20;;;;;;4996470;28;21248;-70
2021/05/10 06:32:50;;;;;;;2.07;1.40;;;21.90;48.20;;;;;;5003862;28;20406;-69
2021/05/10 06:35:16;;;;;;;1.73;0.90;;;21.90;48.20;;;;;;5000449;28;20432;-70
2021/05/10 06:37:42;;;;;;;0.90;0.90;;;21.90;48.30;;;;;;4981357;28;20414;-69
2021/05/10 06:40:09;;;;;;;3.10;1.10;;;21.90;48.50;;;;;;4987314;28;20752;-68
2021/05/10 06:42:36;;;;;;;1.10;1.10;;;21.90;48.30;;;;;;5002272;28;20777;-71
2021/05/10 06:45:03;;;;;;;1.15;1.05;;;21.90;48.30;;;;;;4996883;28;20418;-68
2021/05/10 06:47:30;;;;;;;1.42;1.33;;;21.90;48.20;;;;;;4997192;28;20423;-68
2021/05/10 06:49:56;;;;;;;1.00;0.90;;;21.90;48.20;;;;;;4997748;28;20420;-72
2021/05/10 06:52:22;;;;;;;1.20;1.20;;;21.90;48.20;;;;;;4987104;28;20440;-68
2021/05/10 06:54:48;;;;;;;0.90;0.90;;;21.90;48.20;;;;;;5004202;28;20432;-71
2021/05/10 06:57:15;;;;;;;1.63;1.00;;;21.90;48.20;;;;;;4997624;28;20407;-69
2021/05/10 06:59:42;;;;;;;1.10;1.00;;;21.90;48.20;;;;;;4992523;28;20417;-70
2021/05/10 07:02:08;;;;;;;1.10;1.10;;;21.90;48.20;;;;;;4984721;28;20423;-69
2021/05/10 07:04:35;;;;;;;1.38;1.27;;;21.90;48.20;;;;;;4960255;28;20814;-68
2021/05/10 07:07:01;;;;;;;1.83;1.05;;;22.00;48.30;;;;;;4974696;28;20413;-70
2021/05/10 07:09:27;;;;;;;1.00;1.00;;;22.00;48.30;;;;;;4975652;28;20488;-69
2021/05/10 07:11:53;;;;;;;1.00;1.00;;;22.00;48.30;;;;;;4972865;28;20422;-70
2021/05/10 07:14:19;;;;;;;2.40;1.00;;;22.00;48.30;;;;;;4999856;28;20787;-69
2021/05/10 07:16:45;;;;;;;1.30;1.20;;;22.00;48.30;;;;;;4996932;28;20426;-69
2021/05/10 07:19:11;;;;;;;1.20;1.10;;;22.00;48.30;;;;;;4994560;28;20418;-69
2021/05/10 07:21:39;;;;;;;1.50;1.17;;;22.00;48.30;;;;;;4996049;28;20423;-69
2021/05/10 07:24:05;;;;;;;1.40;1.30;;;22.00;48.30;;;;;;4993012;28;20435;-71
2021/05/10 07:26:31;;;;;;;1.60;1.10;;;22.00;48.30;;;;;;5004024;28;21171;-69
2021/05/10 07:28:58;;;;;;;1.50;1.30;;;22.00;48.40;;;;;;5003123;28;20808;-69
2021/05/10 07:31:24;;;;;;;1.15;1.13;;;22.00;48.30;;;;;;4997811;28;20425;-71
2021/05/10 07:33:51;;;;;;;1.10;1.00;;;22.00;48.30;;;;;;4998513;28;20992;-70
2021/05/10 07:36:17;;;;;;;1.20;1.20;;;22.00;48.40;;;;;;4996593;28;20459;-69
2021/05/10 07:38:44;;;;;;;1.40;1.30;;;22.00;48.30;;;;;;4995141;28;20421;-69
2021/05/10 07:41:10;;;;;;;1.15;1.15;;;22.00;48.40;;;;;;4974822;28;20536;-68
2021/05/10 07:43:36;;;;;;;2.50;1.40;;;21.90;48.20;;;;;;4996292;28;20419;-69
2021/05/10 07:46:02;;;;;;;1.10;1.10;;;21.90;48.30;;;;;;4997119;28;20434;-69
2021/05/10 07:48:30;;;;;;;1.10;1.10;;;21.90;48.20;;;;;;4996057;28;20413;-70
2021/05/10 07:50:56;;;;;;;3.50;1.10;;;21.90;48.20;;;;;;4994728;28;20526;-71
2021/05/10 07:53:22;;;;;;;1.10;1.10;;;21.90;48.20;;;;;;4981573;28;20432;-66
2021/05/10 07:55:49;;;;;;;1.40;0.90;;;22.00;48.30;;;;;;4976071;28;20423;-69
2021/05/10 07:58:21;;;;;;;1.20;1.00;;;22.00;48.10;;;;;;4956574;28;20408;-68
2021/05/10 08:00:48;;;;;;;1.10;1.10;;;22.00;48.10;;;;;;4989138;28;21644;-70
2021/05/10 08:03:16;;;;;;;1.20;1.20;;;22.00;48.10;;;;;;4999075;28;20424;-68
2021/05/10 08:05:43;;;;;;;1.10;1.10;;;22.00;48.00;;;;;;4989345;28;20416;-68
2021/05/10 08:08:10;;;;;;;1.75;1.08;;;22.00;47.90;;;;;;4964167;28;20432;-68
2021/05/10 08:10:36;;;;;;;1.30;1.20;;;22.00;48.10;;;;;;4984434;28;20429;-69
2021/05/10 08:13:03;;;;;;;1.30;1.20;;;22.00;48.00;;;;;;4990303;28;20418;-69
2021/05/10 08:15:29;;;;;;;0.95;0.95;;;22.00;48.00;;;;;;5007960;28;20421;-70
2021/05/10 08:17:55;;;;;;;1.30;1.20;;;22.00;48.00;;;;;;4995042;28;20411;-68
2021/05/10 08:20:21;;;;;;;1.15;1.08;;;22.00;48.10;;;;;;4998066;28;20456;-68
2021/05/10 08:22:47;;;;;;;1.37;1.37;;;22.00;48.00;;;;;;4994307;28;20458;-70
2021/05/10 08:25:14;;;;;;;1.15;1.15;;;22.00;48.10;;;;;;5003193;28;21045;-68
2021/05/10 08:27:40;;;;;;;1.30;1.20;;;22.00;48.10;;;;;;4990552;28;20426;-68
2021/05/10 08:30:09;;;;;;;1.30;1.10;;;22.00;48.10;;;;;;5002704;28;20417;-69
2021/05/10 08:32:35;;;;;;;1.10;1.00;;;22.00;48.00;;;;;;4994177;28;20427;-68
2021/05/10 08:35:16;;;;;;;1.00;1.00;;;21.90;47.90;;;;;;4984872;28;20442;-69
2021/05/10 08:37:42;;;;;;;1.13;1.02;;;21.90;48.70;;;;;;4985848;28;20411;-70
2021/05/10 08:40:09;;;;;;;0.90;0.90;;;22.00;48.00;;;;;;4988959;28;20415;-72
2021/05/10 08:42:35;;;;;;;1.40;1.30;;;22.00;48.00;;;;;;4974948;28;20427;-70
2021/05/10 08:45:02;;;;;;;1.90;1.20;;;22.00;48.00;;;;;;4981833;28;20432;-68
2021/05/10 08:47:32;;;;;;;1.00;1.00;;;22.00;47.90;;;;;;4976867;28;20947;-69
2021/05/10 08:49:59;;;;;;;1.20;1.20;;;22.00;47.90;;;;;;4994648;28;20419;-70
2021/05/10 08:52:25;;;;;;;1.23;1.13;;;22.00;47.90;;;;;;4984134;28;20423;-71
2021/05/10 08:54:51;;;;;;;0.90;0.90;;;22.00;47.90;;;;;;4987174;28;20426;-72
2021/05/10 08:57:17;;;;;;;1.10;1.10;;;22.00;47.80;;;;;;4995308;28;20443;-71
2021/05/10 08:59:43;;;;;;;1.10;1.00;;;22.00;47.90;;;;;;4993770;28;20436;-69
2021/05/10 09:02:09;;;;;;;1.60;1.30;;;22.00;47.80;;;;;;4988410;28;20505;-69
2021/05/10 09:04:37;;;;;;;1.00;1.00;;;22.00;47.80;;;;;;5005700;28;20424;-69
2021/05/10 09:07:13;;;;;;;1.20;1.10;;;22.00;47.80;;;;;;4969252;28;20811;-69
2021/05/10 09:09:55;;;;;;;1.30;1.30;;;22.00;47.80;;;;;;4987757;28;20819;-69
2021/05/10 09:12:23;;;;;;;0.97;0.97;;;22.00;47.80;;;;;;4967539;28;20404;-70
2021/05/10 09:14:49;;;;;;;2.38;1.10;;;22.00;47.70;;;;;;4974583;28;20549;-68
2021/05/10 09:17:15;;;;;;;1.10;1.10;;;22.10;47.80;;;;;;4994264;28;20536;-70
2021/05/10 09:19:48;;;;;;;1.30;1.10;;;22.00;47.60;;;;;;4983591;28;20425;-69
2021/05/10 09:22:15;;;;;;;0.90;0.90;;;22.00;47.60;;;;;;4989889;28;20446;-70
2021/05/10 09:24:45;;;;;;;1.50;1.00;;;22.00;47.60;;;;;;5005824;28;20435;-71
2021/05/10 09:27:23;;;;;;;0.90;0.90;;;22.10;48.40;;;;;;4994399;28;20768;-70
2021/05/10 09:29:50;;;;;;;1.05;1.05;;;22.10;47.60;;;;;;4996529;28;20409;-71
2021/05/10 09:32:27;;;;;;;1.10;1.10;;;22.10;48.30;;;;;;4996299;28;20904;-70
2021/05/10 09:35:18;;;;;;;2.00;0.80;;;22.20;47.60;;;;;;4986197;28;20789;-68
2021/05/10 09:37:45;;;;;;;1.00;0.90;;;22.20;47.50;;;;;;4989282;28;20422;-68
2021/05/10 09:40:11;;;;;;;1.20;1.10;;;22.20;47.50;;;;;;4990075;28;20479;-69
2021/05/10 09:42:51;;;;;;;0.95;0.95;;;22.20;47.40;;;;;;4998608;28;20490;-71
2021/05/10 09:45:31;;;;;;;1.13;1.10;;;22.30;47.40;;;;;;4994887;28;21920;-68
2021/05/10 09:48:07;;;;;;;1.63;0.90;;;22.20;47.40;;;;;;4994950;28;20405;-69
2021/05/10 09:50:35;;;;;;;0.90;0.90;;;22.30;47.40;;;;;;4989445;28;20414;-69
2021/05/10 09:53:02;;;;;;;0.85;0.85;;;22.30;47.40;;;;;;5005297;28;20430;-70
2021/05/10 09:55:49;;;;;;;1.45;0.80;;;22.30;47.40;;;;;;5000971;28;20431;-68
2021/05/10 09:58:16;;;;;;;2.80;0.90;;;22.20;47.20;;;;;;4997819;28;20440;-70
2021/05/10 10:00:42;;;;;;;1.08;1.08;;;22.30;47.30;;;;;;4997578;28;20475;-67
2021/05/10 10:03:42;;;;;;;1.23;0.90;;;22.20;47.30;;;;;;4999669;28;20960;-69
2021/05/10 10:06:11;;;;;;;0.80;0.80;;;22.30;47.30;;;;;;4967749;28;20433;-67
2021/05/10 10:08:37;;;;;;;1.20;0.97;;;22.30;47.30;;;;;;5000134;28;20412;-69
2021/05/10 10:11:04;;;;;;;1.10;1.00;;;22.30;47.30;;;;;;4998377;28;20439;-70
2021/05/10 10:13:30;;;;;;;1.60;0.90;;;22.30;47.20;;;;;;4999675;28;20416;-70
2021/05/10 10:15:57;;;;;;;1.10;1.00;;;22.30;47.20;;;;;;5002787;28;20438;-69
2021/05/10 10:18:24;;;;;;;1.20;0.80;;;22.30;47.20;;;;;;4997274;28;20409;-68
2021/05/10 10:20:51;;;;;;;1.40;1.20;;;22.30;47.20;;;;;;4999119;28;20421;-70
2021/05/10 10:23:20;;;;;;;1.70;0.80;;;22.30;47.20;;;;;;5000215;28;20433;-69
2021/05/10 10:25:46;;;;;;;1.00;1.00;;;22.30;47.20;;;;;;4999827;28;20420;-70
2021/05/10 10:28:14;;;;;;;1.20;1.10;;;22.30;47.20;;;;;;4978887;28;20430;-68
2021/05/10 10:30:41;;;;;;;0.98;0.98;;;22.30;47.20;;;;;;4995074;28;20423;-68
2021/05/10 10:33:10;;;;;;;0.83;0.83;;;22.30;47.20;;;;;;4994152;28;20419;-70
2021/05/10 10:35:37;;;;;;;1.30;1.20;;;22.30;47.20;;;;;;4997918;28;20419;-70
2021/05/10 10:38:05;;;;;;;1.00;1.00;;;22.30;47.40;;;;;;4994514;28;20411;-67
2021/05/10 10:40:32;;;;;;;2.10;0.90;;;22.30;47.20;;;;;;4987692;28;20512;-72
2021/05/10 10:43:22;;;;;;;0.80;0.80;;;22.30;47.30;;;;;;4998974;28;20483;-68
2021/05/10 10:46:17;;;;;;;0.80;0.80;;;22.30;47.30;;;;;;5006090;28;20413;-70
2021/05/10 10:48:43;;;;;;;0.90;0.90;;;22.30;47.30;;;;;;4986407;28;20459;-69
2021/05/10 10:51:11;;;;;;;0.90;0.90;;;22.30;47.30;;;;;;4999282;28;20928;-69
2021/05/10 10:53:40;;;;;;;0.97;0.80;;;22.30;47.20;;;;;;4999347;28;20459;-71
2021/05/10 10:56:07;;;;;;;1.40;0.80;;;22.30;47.30;;;;;;4997539;28;20409;-70
2021/05/10 10:58:33;;;;;;;0.90;0.90;;;22.30;47.20;;;;;;4996392;28;20443;-70
2021/05/10 11:01:00;;;;;;;1.40;1.10;;;22.30;47.20;;;;;;4999539;28;20943;-70
2021/05/10 11:03:27;;;;;;;1.30;1.00;;;22.30;47.20;;;;;;4999397;28;20413;-68
2021/05/10 11:05:53;;;;;;;1.00;0.90;;;22.30;47.20;;;;;;4999220;28;20509;-68
2021/05/10 11:08:39;;;;;;;1.00;0.90;;;22.30;47.20;;;;;;4972529;28;20463;-67
2021/05/10 11:11:06;;;;;;;1.10;1.10;;;22.30;47.20;;;;;;4987614;28;20435;-69
2021/05/10 11:13:38;;;;;;;0.80;0.80;;;22.30;47.20;;;;;;4982803;28;20428;-68
2021/05/10 11:16:05;;;;;;;0.85;0.85;;;22.30;47.20;;;;;;4994715;28;20520;-69
2021/05/10 11:18:44;;;;;;;1.10;0.97;;;22.30;47.30;;;;;;4988530;28;20420;-70
2021/05/10 11:21:25;;;;;;;2.13;0.85;;;22.30;47.30;;;;;;4992998;28;20420;-70
2021/05/10 11:23:52;;;;;;;1.35;1.05;;;22.30;47.20;;;;;;4995970;28;20477;-69
2021/05/10 11:26:37;;;;;;;0.80;0.80;;;22.30;47.10;;;;;;4984603;28;20421;-68
2021/05/10 11:29:04;;;;;;;0.80;0.80;;;22.30;47.10;;;;;;4996550;28;20474;-67
2021/05/10 11:31:37;;;;;;;0.90;0.90;;;22.30;47.10;;;;;;4993357;28;20427;-69
2021/05/10 11:34:09;;;;;;;0.97;0.90;;;22.30;47.10;;;;;;4999057;28;21020;-67
2021/05/10 11:36:36;;;;;;;1.30;1.00;;;22.30;47.20;;;;;;5003693;28;20425;-69
2021/05/10 11:39:04;;;;;;;1.00;1.00;;;22.30;47.20;;;;;;4995596;28;20429;-71
2021/05/10 11:41:30;;;;;;;1.00;0.90;;;22.30;47.10;;;;;;4986534;28;20413;-68
2021/05/10 11:43:58;;;;;;;1.10;1.10;;;22.30;47.20;;;;;;4944902;28;20482;-68
2021/05/10 11:46:37;;;;;;;1.30;0.82;;;22.40;47.20;;;;;;4963725;28;21645;-68
2021/05/10 11:49:04;;;;;;;1.80;0.80;;;22.30;47.10;;;;;;5002489;28;20401;-68
2021/05/10 11:51:30;;;;;;;0.70;0.70;;;22.40;47.20;;;;;;4989976;28;20431;-68
2021/05/10 11:54:03;;;;;;;0.80;0.80;;;22.30;47.10;;;;;;4999132;28;20494;-68
2021/05/10 11:56:30;;;;;;;1.00;1.00;;;22.40;47.10;;;;;;5007489;28;20445;-69
2021/05/10 11:59:00;;;;;;;0.90;0.90;;;22.30;47.00;;;;;;4981718;28;20428;-69
2021/05/10 12:01:34;;;;;;;0.90;0.90;;;22.30;47.10;;;;;;4989409;28;20412;-67
2021/05/10 12:04:09;;;;;;;0.93;0.93;;;22.40;47.30;;;;;;4997178;28;20444;-71
2021/05/10 12:06:36;;;;;;;2.00;1.05;;;22.30;47.20;;;;;;4995724;28;20471;-68
2021/05/10 12:09:02;;;;;;;1.10;1.00;;;22.30;47.30;;;;;;4991410;28;20447;-68
2021/05/10 12:11:29;;;;;;;2.90;1.00;;;22.30;47.30;;;;;;4986864;28;20928;-71
2021/05/10 12:13:55;;;;;;;0.80;0.80;;;22.30;47.30;;;;;;4990988;28;20829;-69
2021/05/10 12:16:22;;;;;;;0.90;0.90;;;22.30;47.40;;;;;;4984989;28;20415;-69
2021/05/10 12:18:56;;;;;;;1.00;1.00;;;22.30;47.30;;;;;;4991217;28;20439;-69
2021/05/10 12:21:22;;;;;;;0.90;0.90;;;22.30;47.30;;;;;;4983114;28;20430;-68
2021/05/10 12:23:48;;;;;;;1.10;1.10;;;22.30;48.20;;;;;;4992501;28;20927;-68
2021/05/10 12:26:14;;;;;;;1.50;1.10;;;22.30;47.30;;;;;;4997770;28;20785;-69
2021/05/10 12:28:40;;;;;;;1.08;1.08;;;22.30;47.40;;;;;;4996853;28;20456;-71
2021/05/10 12:31:06;;;;;;;1.67;1.33;;;22.30;47.40;;;;;;4997629;28;20427;-69
2021/05/10 12:33:34;;;;;;;1.10;1.10;;;22.30;47.40;;;;;;4995396;28;21412;-69
2021/05/10 12:36:02;;;;;;;1.00;0.90;;;22.30;47.30;;;;;;4993549;28;20440;-69
2021/05/10 12:38:30;;;;;;;1.05;0.95;;;22.30;47.30;;;;;;4989669;28;20404;-70
2021/05/10 12:40:56;;;;;;;1.00;1.00;;;22.30;47.30;;;;;;4994360;28;20435;-69
2021/05/10 12:43:23;;;;;;;1.00;1.00;;;22.30;47.30;;;;;;4971457;28;20434;-68
2021/05/10 12:46:00;;;;;;;1.00;1.00;;;22.30;47.30;;;;;;4981656;28;20453;-72
2021/05/10 12:48:27;;;;;;;1.00;1.00;;;22.30;47.40;;;;;;4989391;28;20412;-69
2021/05/10 12:50:54;;;;;;;1.10;0.70;;;22.30;47.40;;;;;;4995341;28;20423;-70